sensor_id;sensor_type;location;lat;lon;timestamp;P1;durP1;ratioP1;P2;durP2;ratioP2
24751;SDS011;27246;52.376;4.628;2022-12-01T00:02:00;41.33;;;27.75;;
24751;SDS011;27246;52.376;4.628;2022-12-01T00:07:02;41.22;;;27.73;;
24751;SDS011;27246;52.376;4.628;2022-12-01T00:12:04;42.40;;;27.98;;
24751;SDS011;27246;52.376;4.628;2022-12-01T00:17:06;43.63;;;28.00;;
24751;SDS011;27246;52.376;4.628;2022-12-01T00:22:07;42.03;;;28.17;;
24751;SDS011;27246;52.376;4.628;2022-12-01T00:27:09;44.15;;;28.48;;
24751;SDS011;27246;52.376;4.628;2022-12-01T00:32:11;38.83;;;26.60;;
24751;SDS011;27246;52.376;4.628;2022-12-01T00:37:14;44.40;;;27.42;;
24751;SDS011;27246;52.376;4.628;2022-12-01T00:42:15;44.67;;;28.52;;
24751;SDS011;27246;52.376;4.628;2022-12-01T00:47:17;43.33;;;28.08;;
24751;SDS011;27246;52.376;4.628;2022-12-01T00:52:19;45.00;;;28.30;;
24751;SDS011;27246;52.376;4.628;2022-12-01T00:57:21;42.42;;;27.52;;
24751;SDS011;27246;52.376;4.628;2022-12-01T01:02:22;46.05;;;29.80;;
24751;SDS011;27246;52.376;4.628;2022-12-01T01:07:24;41.50;;;27.92;;
24751;SDS011;27246;52.376;4.628;2022-12-01T01:12:27;46.65;;;28.00;;
24751;SDS011;27246;52.376;4.628;2022-12-01T01:17:29;41.78;;;27.80;;
24751;SDS011;27246;52.376;4.628;2022-12-01T01:22:30;40.65;;;28.48;;
24751;SDS011;27246;52.376;4.628;2022-12-01T01:27:33;42.05;;;27.33;;
24751;SDS011;27246;52.376;4.628;2022-12-01T01:32:35;44.78;;;28.05;;
24751;SDS011;27246;52.376;4.628;2022-12-01T01:37:36;44.95;;;28.00;;
24751;SDS011;27246;52.376;4.628;2022-12-01T01:42:38;45.00;;;27.27;;
24751;SDS011;27246;52.376;4.628;2022-12-01T01:47:40;40.83;;;27.25;;
24751;SDS011;27246;52.376;4.628;2022-12-01T01:52:42;43.45;;;28.00;;
24751;SDS011;27246;52.376;4.628;2022-12-01T01:57:46;43.60;;;29.05;;
24751;SDS011;27246;52.376;4.628;2022-12-01T02:02:48;42.92;;;26.80;;
24751;SDS011;27246;52.376;4.628;2022-12-01T02:07:51;42.95;;;27.38;;
24751;SDS011;27246;52.376;4.628;2022-12-01T02:13:00;40.70;;;26.63;;
24751;SDS011;27246;52.376;4.628;2022-12-01T02:34:04;42.25;;;27.38;;
24751;SDS011;27246;52.376;4.628;2022-12-01T02:39:27;43.17;;;27.58;;
24751;SDS011;27246;52.376;4.628;2022-12-01T02:44:35;42.25;;;27.85;;
24751;SDS011;27246;52.376;4.628;2022-12-01T02:49:41;41.40;;;27.00;;
24751;SDS011;27246;52.376;4.628;2022-12-01T02:54:47;41.70;;;26.48;;
24751;SDS011;27246;52.376;4.628;2022-12-01T02:59:51;41.72;;;26.88;;
24751;SDS011;27246;52.376;4.628;2022-12-01T03:04:59;37.33;;;25.80;;
24751;SDS011;27246;52.376;4.628;2022-12-01T03:10:12;39.70;;;25.90;;
24751;SDS011;27246;52.376;4.628;2022-12-01T03:15:41;40.40;;;27.27;;
24751;SDS011;27246;52.376;4.628;2022-12-01T03:26:16;41.58;;;26.02;;
24751;SDS011;27246;52.376;4.628;2022-12-01T03:31:23;41.03;;;26.42;;
24751;SDS011;27246;52.376;4.628;2022-12-01T03:36:33;37.25;;;25.25;;
24751;SDS011;27246;52.376;4.628;2022-12-01T03:41:42;39.73;;;26.27;;
24751;SDS011;27246;52.376;4.628;2022-12-01T03:46:52;41.15;;;26.45;;
24751;SDS011;27246;52.376;4.628;2022-12-01T04:02:25;40.63;;;26.75;;
24751;SDS011;27246;52.376;4.628;2022-12-01T04:07:28;41.35;;;26.33;;
24751;SDS011;27246;52.376;4.628;2022-12-01T04:12:30;44.65;;;27.85;;
24751;SDS011;27246;52.376;4.628;2022-12-01T04:17:33;42.25;;;26.20;;
24751;SDS011;27246;52.376;4.628;2022-12-01T04:22:35;39.08;;;26.80;;
24751;SDS011;27246;52.376;4.628;2022-12-01T04:27:37;38.78;;;25.08;;
24751;SDS011;27246;52.376;4.628;2022-12-01T04:32:39;45.15;;;26.33;;
24751;SDS011;27246;52.376;4.628;2022-12-01T04:37:42;39.15;;;24.42;;
24751;SDS011;27246;52.376;4.628;2022-12-01T04:42:44;39.22;;;25.08;;
24751;SDS011;27246;52.376;4.628;2022-12-01T04:47:46;40.70;;;26.10;;
24751;SDS011;27246;52.376;4.628;2022-12-01T04:52:47;43.13;;;28.20;;
24751;SDS011;27246;52.376;4.628;2022-12-01T04:57:49;40.03;;;25.15;;
24751;SDS011;27246;52.376;4.628;2022-12-01T05:02:50;37.30;;;26.10;;
24751;SDS011;27246;52.376;4.628;2022-12-01T05:07:52;44.38;;;29.20;;
24751;SDS011;27246;52.376;4.628;2022-12-01T05:12:54;39.25;;;26.58;;
24751;SDS011;27246;52.376;4.628;2022-12-01T05:17:58;42.53;;;26.80;;
24751;SDS011;27246;52.376;4.628;2022-12-01T05:23:00;41.35;;;26.52;;
24751;SDS011;27246;52.376;4.628;2022-12-01T05:28:06;45.20;;;28.38;;
24751;SDS011;27246;52.376;4.628;2022-12-01T05:33:08;44.00;;;26.40;;
24751;SDS011;27246;52.376;4.628;2022-12-01T05:38:10;43.38;;;26.25;;
24751;SDS011;27246;52.376;4.628;2022-12-01T05:43:11;46.78;;;26.55;;
24751;SDS011;27246;52.376;4.628;2022-12-01T05:48:13;46.45;;;28.33;;
24751;SDS011;27246;52.376;4.628;2022-12-01T05:53:15;51.03;;;30.98;;
24751;SDS011;27246;52.376;4.628;2022-12-01T05:58:17;44.45;;;28.80;;
24751;SDS011;27246;52.376;4.628;2022-12-01T06:03:19;45.90;;;29.35;;
24751;SDS011;27246;52.376;4.628;2022-12-01T06:08:22;51.17;;;30.83;;
24751;SDS011;27246;52.376;4.628;2022-12-01T06:13:23;51.33;;;31.25;;
24751;SDS011;27246;52.376;4.628;2022-12-01T06:18:26;47.47;;;30.38;;
24751;SDS011;27246;52.376;4.628;2022-12-01T06:23:28;45.90;;;29.80;;
24751;SDS011;27246;52.376;4.628;2022-12-01T06:28:31;51.35;;;30.77;;
24751;SDS011;27246;52.376;4.628;2022-12-01T06:33:32;52.97;;;30.73;;
24751;SDS011;27246;52.376;4.628;2022-12-01T06:38:35;49.22;;;30.25;;
24751;SDS011;27246;52.376;4.628;2022-12-01T06:43:37;54.85;;;29.80;;
24751;SDS011;27246;52.376;4.628;2022-12-01T06:48:39;61.00;;;31.52;;
24751;SDS011;27246;52.376;4.628;2022-12-01T06:53:41;53.83;;;31.42;;
24751;SDS011;27246;52.376;4.628;2022-12-01T06:58:42;59.65;;;31.40;;
24751;SDS011;27246;52.376;4.628;2022-12-01T07:03:48;50.35;;;29.48;;
24751;SDS011;27246;52.376;4.628;2022-12-01T07:08:51;51.50;;;30.45;;
24751;SDS011;27246;52.376;4.628;2022-12-01T07:13:53;56.10;;;32.35;;
24751;SDS011;27246;52.376;4.628;2022-12-01T07:18:56;51.17;;;31.13;;
24751;SDS011;27246;52.376;4.628;2022-12-01T07:24:00;51.03;;;29.65;;
24751;SDS011;27246;52.376;4.628;2022-12-01T07:29:01;47.75;;;29.73;;
24751;SDS011;27246;52.376;4.628;2022-12-01T07:34:03;52.28;;;29.30;;
24751;SDS011;27246;52.376;4.628;2022-12-01T07:39:06;50.55;;;29.02;;
24751;SDS011;27246;52.376;4.628;2022-12-01T07:44:09;46.92;;;28.55;;
24751;SDS011;27246;52.376;4.628;2022-12-01T07:49:11;51.47;;;29.90;;
24751;SDS011;27246;52.376;4.628;2022-12-01T07:54:15;53.05;;;29.65;;
24751;SDS011;27246;52.376;4.628;2022-12-01T07:59:20;54.60;;;29.95;;
24751;SDS011;27246;52.376;4.628;2022-12-01T08:04:22;51.13;;;30.88;;
24751;SDS011;27246;52.376;4.628;2022-12-01T08:09:24;53.17;;;30.23;;
24751;SDS011;27246;52.376;4.628;2022-12-01T08:14:25;57.45;;;31.50;;
24751;SDS011;27246;52.376;4.628;2022-12-01T08:19:27;55.10;;;31.85;;
24751;SDS011;27246;52.376;4.628;2022-12-01T08:24:29;51.25;;;30.02;;
24751;SDS011;27246;52.376;4.628;2022-12-01T08:29:31;51.92;;;30.20;;
24751;SDS011;27246;52.376;4.628;2022-12-01T08:34:36;50.20;;;29.42;;
24751;SDS011;27246;52.376;4.628;2022-12-01T08:39:39;50.58;;;30.77;;
24751;SDS011;27246;52.376;4.628;2022-12-01T08:44:40;55.72;;;33.25;;
24751;SDS011;27246;52.376;4.628;2022-12-01T08:49:42;53.00;;;30.60;;
24751;SDS011;27246;52.376;4.628;2022-12-01T08:54:43;56.70;;;31.35;;
24751;SDS011;27246;52.376;4.628;2022-12-01T08:59:45;53.50;;;31.95;;
24751;SDS011;27246;52.376;4.628;2022-12-01T09:04:48;57.15;;;32.58;;
24751;SDS011;27246;52.376;4.628;2022-12-01T09:09:53;54.60;;;31.25;;
24751;SDS011;27246;52.376;4.628;2022-12-01T09:14:54;52.05;;;29.58;;
24751;SDS011;27246;52.376;4.628;2022-12-01T09:19:56;61.55;;;32.65;;
24751;SDS011;27246;52.376;4.628;2022-12-01T09:24:57;54.25;;;32.75;;
24751;SDS011;27246;52.376;4.628;2022-12-01T09:29:59;51.03;;;30.48;;
24751;SDS011;27246;52.376;4.628;2022-12-01T09:35:01;59.65;;;33.75;;
24751;SDS011;27246;52.376;4.628;2022-12-01T09:40:03;50.13;;;30.90;;
24751;SDS011;27246;52.376;4.628;2022-12-01T09:45:05;51.50;;;31.27;;
24751;SDS011;27246;52.376;4.628;2022-12-01T09:50:18;54.45;;;30.08;;
24751;SDS011;27246;52.376;4.628;2022-12-01T09:55:25;53.70;;;31.98;;
24751;SDS011;27246;52.376;4.628;2022-12-01T10:00:34;54.20;;;31.88;;
24751;SDS011;27246;52.376;4.628;2022-12-01T10:05:45;61.50;;;31.63;;
24751;SDS011;27246;52.376;4.628;2022-12-01T10:11:27;48.50;;;29.77;;
24751;SDS011;27246;52.376;4.628;2022-12-01T10:16:42;46.22;;;25.83;;
24751;SDS011;27246;52.376;4.628;2022-12-01T10:22:18;54.08;;;29.60;;
24751;SDS011;27246;52.376;4.628;2022-12-01T10:32:47;53.75;;;30.67;;
24751;SDS011;27246;52.376;4.628;2022-12-01T10:37:56;46.80;;;27.45;;
24751;SDS011;27246;52.376;4.628;2022-12-01T10:43:00;54.50;;;29.50;;
24751;SDS011;27246;52.376;4.628;2022-12-01T10:58:23;40.00;;;25.77;;
24751;SDS011;27246;52.376;4.628;2022-12-01T11:03:27;42.42;;;26.02;;
24751;SDS011;27246;52.376;4.628;2022-12-01T11:08:38;47.08;;;26.98;;
24751;SDS011;27246;52.376;4.628;2022-12-01T11:18:43;43.80;;;26.25;;
24751;SDS011;27246;52.376;4.628;2022-12-01T11:23:46;46.92;;;27.48;;
24751;SDS011;27246;52.376;4.628;2022-12-01T11:28:53;44.67;;;25.45;;
24751;SDS011;27246;52.376;4.628;2022-12-01T11:34:00;48.58;;;23.25;;
24751;SDS011;27246;52.376;4.628;2022-12-01T11:39:02;36.25;;;23.48;;
24751;SDS011;27246;52.376;4.628;2022-12-01T11:44:17;35.00;;;19.98;;
24751;SDS011;27246;52.376;4.628;2022-12-01T11:49:42;30.40;;;20.65;;
24751;SDS011;27246;52.376;4.628;2022-12-01T11:54:54;34.13;;;20.23;;
24751;SDS011;27246;52.376;4.628;2022-12-01T11:59:58;28.77;;;18.35;;
24751;SDS011;27246;52.376;4.628;2022-12-01T12:05:18;29.17;;;18.45;;
24751;SDS011;27246;52.376;4.628;2022-12-01T12:26:37;26.63;;;16.65;;
24751;SDS011;27246;52.376;4.628;2022-12-01T12:37:34;24.05;;;14.95;;
24751;SDS011;27246;52.376;4.628;2022-12-01T12:48:07;26.38;;;16.42;;
24751;SDS011;27246;52.376;4.628;2022-12-01T12:53:12;23.25;;;14.70;;
24751;SDS011;27246;52.376;4.628;2022-12-01T12:58:22;25.85;;;15.45;;
24751;SDS011;27246;52.376;4.628;2022-12-01T13:08:54;22.58;;;15.45;;
24751;SDS011;27246;52.376;4.628;2022-12-01T13:14:06;24.55;;;15.52;;
24751;SDS011;27246;52.376;4.628;2022-12-01T13:19:20;20.88;;;13.65;;
24751;SDS011;27246;52.376;4.628;2022-12-01T13:24:28;23.83;;;14.30;;
24751;SDS011;27246;52.376;4.628;2022-12-01T13:29:32;23.15;;;14.82;;
24751;SDS011;27246;52.376;4.628;2022-12-01T13:34:44;26.85;;;15.20;;
24751;SDS011;27246;52.376;4.628;2022-12-01T13:39:48;28.25;;;16.67;;
24751;SDS011;27246;52.376;4.628;2022-12-01T13:44:59;26.33;;;15.35;;
24751;SDS011;27246;52.376;4.628;2022-12-01T13:55:56;25.77;;;15.88;;
24751;SDS011;27246;52.376;4.628;2022-12-01T14:06:26;25.92;;;15.55;;
24751;SDS011;27246;52.376;4.628;2022-12-01T14:11:53;20.27;;;13.55;;
24751;SDS011;27246;52.376;4.628;2022-12-01T14:16:59;26.27;;;15.73;;
24751;SDS011;27246;52.376;4.628;2022-12-01T14:22:04;22.75;;;14.02;;
24751;SDS011;27246;52.376;4.628;2022-12-01T14:27:07;27.83;;;14.75;;
24751;SDS011;27246;52.376;4.628;2022-12-01T14:37:17;22.55;;;14.40;;
24751;SDS011;27246;52.376;4.628;2022-12-01T14:42:30;22.17;;;13.57;;
24751;SDS011;27246;52.376;4.628;2022-12-01T14:48:04;23.95;;;13.95;;
24751;SDS011;27246;52.376;4.628;2022-12-01T14:53:16;18.50;;;12.77;;
24751;SDS011;27246;52.376;4.628;2022-12-01T14:58:23;21.17;;;12.57;;
24751;SDS011;27246;52.376;4.628;2022-12-01T15:03:31;22.05;;;13.50;;
24751;SDS011;27246;52.376;4.628;2022-12-01T15:08:39;26.10;;;13.60;;
24751;SDS011;27246;52.376;4.628;2022-12-01T15:13:54;25.92;;;14.60;;
24751;SDS011;27246;52.376;4.628;2022-12-01T15:18:57;24.02;;;13.85;;
24751;SDS011;27246;52.376;4.628;2022-12-01T15:24:18;32.55;;;15.10;;
24751;SDS011;27246;52.376;4.628;2022-12-01T15:29:25;28.13;;;15.13;;
24751;SDS011;27246;52.376;4.628;2022-12-01T15:34:32;28.88;;;14.48;;
24751;SDS011;27246;52.376;4.628;2022-12-01T15:39:41;24.50;;;13.52;;
24751;SDS011;27246;52.376;4.628;2022-12-01T15:44:44;33.03;;;15.43;;
24751;SDS011;27246;52.376;4.628;2022-12-01T15:50:01;27.98;;;15.00;;
24751;SDS011;27246;52.376;4.628;2022-12-01T15:55:04;24.52;;;14.25;;
24751;SDS011;27246;52.376;4.628;2022-12-01T16:00:16;33.47;;;16.75;;
24751;SDS011;27246;52.376;4.628;2022-12-01T16:05:27;25.63;;;16.17;;
24751;SDS011;27246;52.376;4.628;2022-12-01T16:10:34;28.33;;;15.45;;
24751;SDS011;27246;52.376;4.628;2022-12-01T16:15:41;31.83;;;18.27;;
24751;SDS011;27246;52.376;4.628;2022-12-01T16:20:44;30.95;;;16.70;;
24751;SDS011;27246;52.376;4.628;2022-12-01T16:25:45;28.30;;;16.95;;
24751;SDS011;27246;52.376;4.628;2022-12-01T16:30:48;38.75;;;24.50;;
24751;SDS011;27246;52.376;4.628;2022-12-01T16:35:51;41.50;;;24.33;;
24751;SDS011;27246;52.376;4.628;2022-12-01T16:40:55;38.33;;;20.65;;
24751;SDS011;27246;52.376;4.628;2022-12-01T16:46:00;43.30;;;22.33;;
24751;SDS011;27246;52.376;4.628;2022-12-01T16:51:05;38.83;;;24.58;;
24751;SDS011;27246;52.376;4.628;2022-12-01T16:56:08;38.45;;;23.23;;
24751;SDS011;27246;52.376;4.628;2022-12-01T17:01:13;36.42;;;26.02;;
24751;SDS011;27246;52.376;4.628;2022-12-01T17:06:16;41.58;;;27.17;;
24751;SDS011;27246;52.376;4.628;2022-12-01T17:11:19;38.50;;;27.02;;
24751;SDS011;27246;52.376;4.628;2022-12-01T17:16:21;39.67;;;25.70;;
24751;SDS011;27246;52.376;4.628;2022-12-01T17:21:23;40.15;;;25.58;;
24751;SDS011;27246;52.376;4.628;2022-12-01T17:26:25;40.13;;;24.98;;
24751;SDS011;27246;52.376;4.628;2022-12-01T17:31:27;45.88;;;30.10;;
24751;SDS011;27246;52.376;4.628;2022-12-01T17:36:29;43.70;;;28.98;;
24751;SDS011;27246;52.376;4.628;2022-12-01T17:41:30;41.13;;;29.08;;
24751;SDS011;27246;52.376;4.628;2022-12-01T17:46:36;41.70;;;28.80;;
24751;SDS011;27246;52.376;4.628;2022-12-01T17:51:39;40.85;;;28.00;;
24751;SDS011;27246;52.376;4.628;2022-12-01T17:56:41;48.40;;;32.25;;
24751;SDS011;27246;52.376;4.628;2022-12-01T18:01:43;61.67;;;46.17;;
24751;SDS011;27246;52.376;4.628;2022-12-01T18:06:45;66.28;;;50.50;;
24751;SDS011;27246;52.376;4.628;2022-12-01T18:11:54;42.35;;;27.55;;
24751;SDS011;27246;52.376;4.628;2022-12-01T18:16:56;41.67;;;27.13;;
24751;SDS011;27246;52.376;4.628;2022-12-01T18:21:58;41.28;;;23.10;;
24751;SDS011;27246;52.376;4.628;2022-12-01T18:27:00;39.15;;;23.80;;
24751;SDS011;27246;52.376;4.628;2022-12-01T18:32:02;33.17;;;21.00;;
24751;SDS011;27246;52.376;4.628;2022-12-01T18:37:04;32.55;;;21.27;;
24751;SDS011;27246;52.376;4.628;2022-12-01T18:42:06;42.80;;;26.90;;
24751;SDS011;27246;52.376;4.628;2022-12-01T18:47:08;47.03;;;31.33;;
24751;SDS011;27246;52.376;4.628;2022-12-01T18:52:10;54.13;;;36.38;;
24751;SDS011;27246;52.376;4.628;2022-12-01T18:57:11;57.25;;;38.83;;
24751;SDS011;27246;52.376;4.628;2022-12-01T19:02:15;57.70;;;37.70;;
24751;SDS011;27246;52.376;4.628;2022-12-01T19:07:16;49.63;;;34.45;;
24751;SDS011;27246;52.376;4.628;2022-12-01T19:12:19;47.90;;;31.42;;
24751;SDS011;27246;52.376;4.628;2022-12-01T19:17:20;43.25;;;27.75;;
24751;SDS011;27246;52.376;4.628;2022-12-01T19:22:22;33.28;;;21.80;;
24751;SDS011;27246;52.376;4.628;2022-12-01T19:27:24;43.40;;;29.02;;
24751;SDS011;27246;52.376;4.628;2022-12-01T19:32:26;37.35;;;23.48;;
24751;SDS011;27246;52.376;4.628;2022-12-01T19:37:27;35.92;;;22.50;;
24751;SDS011;27246;52.376;4.628;2022-12-01T19:42:29;28.92;;;18.02;;
24751;SDS011;27246;52.376;4.628;2022-12-01T19:47:33;21.85;;;15.98;;
24751;SDS011;27246;52.376;4.628;2022-12-01T19:52:35;26.67;;;17.02;;
24751;SDS011;27246;52.376;4.628;2022-12-01T19:57:37;26.13;;;17.55;;
24751;SDS011;27246;52.376;4.628;2022-12-01T20:02:39;25.85;;;17.02;;
24751;SDS011;27246;52.376;4.628;2022-12-01T20:07:40;28.58;;;16.95;;
24751;SDS011;27246;52.376;4.628;2022-12-01T20:12:42;26.73;;;16.85;;
24751;SDS011;27246;52.376;4.628;2022-12-01T20:17:44;23.25;;;16.10;;
24751;SDS011;27246;52.376;4.628;2022-12-01T20:22:46;24.00;;;16.77;;
24751;SDS011;27246;52.376;4.628;2022-12-01T20:27:47;22.75;;;16.10;;
24751;SDS011;27246;52.376;4.628;2022-12-01T20:32:49;25.33;;;18.48;;
24751;SDS011;27246;52.376;4.628;2022-12-01T20:37:51;28.38;;;19.02;;
24751;SDS011;27246;52.376;4.628;2022-12-01T20:42:56;27.35;;;19.50;;
24751;SDS011;27246;52.376;4.628;2022-12-01T20:47:58;33.15;;;22.48;;
24751;SDS011;27246;52.376;4.628;2022-12-01T20:53:00;30.42;;;20.25;;
24751;SDS011;27246;52.376;4.628;2022-12-01T20:58:02;29.85;;;19.75;;
24751;SDS011;27246;52.376;4.628;2022-12-01T21:03:05;28.75;;;19.00;;
24751;SDS011;27246;52.376;4.628;2022-12-01T21:08:07;30.30;;;19.20;;
24751;SDS011;27246;52.376;4.628;2022-12-01T21:13:14;29.48;;;18.52;;
24751;SDS011;27246;52.376;4.628;2022-12-01T21:23:52;24.55;;;16.45;;
24751;SDS011;27246;52.376;4.628;2022-12-01T21:29:37;22.45;;;16.52;;
24751;SDS011;27246;52.376;4.628;2022-12-01T21:34:38;29.55;;;15.80;;
24751;SDS011;27246;52.376;4.628;2022-12-01T21:39:40;23.23;;;15.73;;
24751;SDS011;27246;52.376;4.628;2022-12-01T21:44:43;21.90;;;15.50;;
24751;SDS011;27246;52.376;4.628;2022-12-01T21:49:46;23.77;;;16.85;;
24751;SDS011;27246;52.376;4.628;2022-12-01T21:54:51;34.45;;;19.83;;
24751;SDS011;27246;52.376;4.628;2022-12-01T21:59:56;28.80;;;19.65;;
24751;SDS011;27246;52.376;4.628;2022-12-01T22:16:02;32.05;;;21.80;;
24751;SDS011;27246;52.376;4.628;2022-12-01T22:21:20;34.35;;;21.40;;
24751;SDS011;27246;52.376;4.628;2022-12-01T22:26:36;34.67;;;21.15;;
24751;SDS011;27246;52.376;4.628;2022-12-01T22:31:44;35.10;;;23.80;;
24751;SDS011;27246;52.376;4.628;2022-12-01T22:36:47;36.10;;;22.38;;
24751;SDS011;27246;52.376;4.628;2022-12-01T22:41:51;33.92;;;22.25;;
24751;SDS011;27246;52.376;4.628;2022-12-01T22:47:01;34.75;;;23.77;;
24751;SDS011;27246;52.376;4.628;2022-12-01T22:52:14;36.90;;;24.80;;
24751;SDS011;27246;52.376;4.628;2022-12-01T23:02:35;39.45;;;26.50;;
24751;SDS011;27246;52.376;4.628;2022-12-01T23:07:38;41.22;;;26.85;;
24751;SDS011;27246;52.376;4.628;2022-12-01T23:12:42;42.08;;;27.60;;
24751;SDS011;27246;52.376;4.628;2022-12-01T23:17:45;44.35;;;28.55;;
24751;SDS011;27246;52.376;4.628;2022-12-01T23:22:47;44.03;;;28.58;;
24751;SDS011;27246;52.376;4.628;2022-12-01T23:27:53;42.70;;;28.63;;
24751;SDS011;27246;52.376;4.628;2022-12-01T23:38:12;49.55;;;31.13;;
24751;SDS011;27246;52.376;4.628;2022-12-01T23:43:26;50.60;;;32.08;;
24751;SDS011;27246;52.376;4.628;2022-12-01T23:48:32;56.75;;;32.90;;
24751;SDS011;27246;52.376;4.628;2022-12-01T23:53:37;52.08;;;32.53;;
24751;SDS011;27246;52.376;4.628;2022-12-01T23:58:41;57.08;;;35.45;;
